WetterOnline ( http://www.wetteronline.de )

Wetter aktuell Marienberg

Aktuelles Wetter: Chemnitz (420m)

6-stündlich | Neueste Meldungen
Ortszeit Temperatur Wetter
Do, 19.07. 20:00 23.5° C wolkenlos
Do, 19.07. 14:00 23.7° C bewölkt
Do, 19.07. 8:00 15.4° C fast wolkenlos
Do, 19.07. 2:00 16.3° C wolkig
Mi, 18.07. 20:00 22.7° C leicht bewölkt
Mi, 18.07. 14:00 24.4° C wolkig
Mi, 18.07. 8:00 17.5° C bewölkt
Mi, 18.07. 2:00 18.1° C wolkig
Ortszeit Temperatur Wetter
Fr, 20.07. 1:00 16.7° C wolkenlos
Fr, 20.07. 0:50 16.7° C wolkenlos
Fr, 20.07. 0:40 16.8° C wolkenlos
Fr, 20.07. 0:30 16.7° C fast wolkenlos
Fr, 20.07. 0:20 16.7° C fast wolkenlos
Fr, 20.07. 0:10 16.9° C fast wolkenlos
Fr, 20.07. 0:00 17.4° C fast wolkenlos
Do, 19.07. 23:30 18.2° C fast wolkenlos
Do, 19.07. 23:00 18.9° C leicht bewölkt
Do, 19.07. 22:30 19.5° C wolkenlos
Do, 19.07. 22:00 19.5° C wolkenlos
Ortszeit Relative Feuchte Sichtweite
Do, 19.07. 20:00 40% 24 km
Do, 19.07. 14:00 44% 16 km
Do, 19.07. 8:00 68% 19 km
Do, 19.07. 2:00 65% 35 km
Mi, 18.07. 20:00 42% 29 km
Mi, 18.07. 14:00 43% 23 km
Mi, 18.07. 8:00 69% 17 km
Mi, 18.07. 2:00 60% 13 km
Ortszeit Relative Feuchte Sichtweite
Fr, 20.07. 1:00 80% 13 km
Fr, 20.07. 0:50 80% -
Fr, 20.07. 0:40 80% -
Fr, 20.07. 0:30 80% 13 km
Fr, 20.07. 0:20 80% -
Fr, 20.07. 0:10 79% -
Fr, 20.07. 0:00 76% 14 km
Do, 19.07. 23:30 74% 14 km
Do, 19.07. 23:00 69% 15 km
Do, 19.07. 22:30 63% 17 km
Do, 19.07. 22:00 55% 22 km
Ortszeit Niederschlagsmenge Niederschlagsart
Do, 19.07. 20:00 0.0 l/m2 in 12 Std. -
Do, 19.07. 14:00 0.0 l/m2 in 6 Std. -
Do, 19.07. 8:00 0.0 l/m2 in 12 Std. -
Do, 19.07. 2:00 0.0 l/m2 in 6 Std. -
Mi, 18.07. 20:00 0.0 l/m2 in 12 Std. -
Mi, 18.07. 14:00 0.0 l/m2 in 6 Std. -
Mi, 18.07. 8:00 0.0 l/m2 in 12 Std. -
Mi, 18.07. 2:00 0.0 l/m2 in 6 Std. -
Ortszeit Niederschlagsmenge Niederschlagsart
Fr, 20.07. 1:00 0.0 l/m2 in 1 Std. -
Fr, 20.07. 0:50 keine Meldung -
Fr, 20.07. 0:40 keine Meldung -
Fr, 20.07. 0:30 0.0 l/m2 in 1 Std. -
Fr, 20.07. 0:20 keine Meldung -
Fr, 20.07. 0:10 keine Meldung -
Fr, 20.07. 0:00 0.0 l/m2 in 1 Std. -
Do, 19.07. 23:30 0.0 l/m2 in 1 Std. -
Do, 19.07. 23:00 0.0 l/m2 in 1 Std. -
Do, 19.07. 22:30 0.0 l/m2 in 1 Std. -
Do, 19.07. 22:00 0.0 l/m2 in 1 Std. -
Ortszeit Stärke Spitze Richtung
km/h Bft. km/h Grad Sektor
Do, 19.07. 20:00 11 2 32 330° NW
Do, 19.07. 14:00 17 3 28 310° NW
Do, 19.07. 8:00 11 2 18 260° W
Do, 19.07. 2:00 7 2 32 310° NW
Mi, 18.07. 20:00 20 4 43 330° NW
Mi, 18.07. 14:00 19 3 31 300° NW
Mi, 18.07. 8:00 15 3 22 240° SW
Mi, 18.07. 2:00 7 2 32 270° W
Ortszeit Stärke Spitze Richtung
km/h Bft. km/h Grad Sektor
Fr, 20.07. 1:00 7 2 11 90° O
Fr, 20.07. 0:50 7 2 - 90° O
Fr, 20.07. 0:40 9 2 - 90° O
Fr, 20.07. 0:30 7 2 11 80° O
Fr, 20.07. 0:20 7 2 - 80° O
Fr, 20.07. 0:10 7 2 - 100° O
Fr, 20.07. 0:00 9 2 15 110° O
Do, 19.07. 23:30 11 2 14 110° O
Do, 19.07. 23:00 9 2 15 130° SO
Do, 19.07. 22:30 9 2 15 90° O
Do, 19.07. 22:00 7 2 11 20° N
Ortszeit Untergrenze Bedeckung Gattung
total tief tief mittel hoch
Do, 19.07. 20:00 - 0/8 0/8 - - -
Do, 19.07. 14:00 1380 m 7/8 - - - -
Do, 19.07. 8:00 660 m 1/8 1/8 - - -
Do, 19.07. 2:00 8400 m 8/8 0/8 - - -
Mi, 18.07. 20:00 10500 m 8/8 0/8 - - -
Mi, 18.07. 14:00 1380 m 7/8 4/8 - - -
Mi, 18.07. 8:00 2100 m 8/8 7/8 - - -
Mi, 18.07. 2:00 8400 m 8/8 0/8 - - -
Ortszeit Bedeckungsgrad in Achtel und Wolkenuntergrenze
Fr, 20.07. 1:00 keine Wolken
Fr, 20.07. 0:50 keine Wolken
Fr, 20.07. 0:40 keine Wolken
Fr, 20.07. 0:30 1(3000m)
Fr, 20.07. 0:20 1(3000m)
Fr, 20.07. 0:10 1(3000m)
Fr, 20.07. 0:00 1(3300m)
Do, 19.07. 23:30 1(3000m)
Do, 19.07. 23:00 1(3300m) 9 9
Do, 19.07. 22:30 keine Wolken
Do, 19.07. 22:00 keine Wolken
Ortszeit Luftdruck NN (hPa) Tendenz (hPa in 3 Std.)
Do, 19.07. 20:00 1015 - 0,6
Do, 19.07. 14:00 1016 - 0,2
Do, 19.07. 8:00 1018 + 0,6
Do, 19.07. 2:00 1017 + 0,5
Mi, 18.07. 20:00 1015 + 0,4
Mi, 18.07. 14:00 1015 - 0,4
Mi, 18.07. 8:00 1016 + 1,8
Mi, 18.07. 2:00 1013 + 0,7
Ortszeit Luftdruck NN (hPa) Tendenz (hPa in 3 Std.)
Fr, 20.07. 1:00 1017 + 0,3
Fr, 20.07. 0:50 1017 keine Meldung
Fr, 20.07. 0:40 1017 keine Meldung
Fr, 20.07. 0:30 1017 + 0,2
Fr, 20.07. 0:20 1017 keine Meldung
Fr, 20.07. 0:10 1016 keine Meldung
Fr, 20.07. 0:00 1016 + 0,1
Do, 19.07. 23:30 1016 + 0,4
Do, 19.07. 23:00 1016 + 0,5
Do, 19.07. 22:30 1016 + 0,5
Do, 19.07. 22:00 1016 + 0,3
Ortszeit Schneehöhe (cm)
Do, 19.07. 20:00 -
Do, 19.07. 14:00 -
Do, 19.07. 8:00 -
Do, 19.07. 2:00 -
Mi, 18.07. 20:00 -
Mi, 18.07. 14:00 -
Mi, 18.07. 8:00 -
Mi, 18.07. 2:00 -
Ortszeit Schneehöhe (cm)
Fr, 20.07. 1:00 -
Fr, 20.07. 0:50 -
Fr, 20.07. 0:40 -
Fr, 20.07. 0:30 -
Fr, 20.07. 0:20 -
Fr, 20.07. 0:10 -
Fr, 20.07. 0:00 -
Do, 19.07. 23:30 -
Do, 19.07. 23:00 -
Do, 19.07. 22:30 -
Do, 19.07. 22:00 -
Link zu dieser Seite / Seite empfehlen

Das Wetter in ...